createdAt,value
2019-05-22T00:00:08.889Z,72.82
2019-05-22T00:02:39.204Z,72.88
2019-05-22T00:05:10.864Z,72.48
2019-05-22T00:07:39.422Z,73.00
2019-05-22T00:10:08.984Z,73.49
2019-05-22T00:12:46.253Z,72.80
2019-05-22T00:15:07.411Z,72.74
2019-05-22T00:17:35.066Z,72.36
2019-05-22T00:20:03.194Z,72.60
2019-05-22T00:22:31.349Z,72.58
2019-05-22T00:25:01.015Z,72.46
2019-05-22T00:27:30.490Z,72.75
2019-05-22T00:29:59.288Z,72.26
2019-05-22T00:32:26.540Z,72.74
2019-05-22T00:34:55.022Z,72.61
2019-05-22T00:37:22.015Z,72.75
2019-05-22T00:39:51.564Z,73.39
2019-05-22T00:42:20.341Z,73.26
2019-05-22T00:44:47.968Z,72.91
2019-05-22T00:47:14.560Z,73.42
2019-05-22T00:49:44.716Z,72.93
2019-05-22T00:52:17.891Z,73.05
2019-05-22T00:54:47.226Z,73.63
2019-05-22T00:57:15.793Z,73.51
2019-05-22T00:59:44.586Z,72.93
2019-05-22T01:02:13.777Z,73.92
2019-05-22T01:04:41.718Z,73.77
2019-05-22T01:07:12.627Z,73.30
2019-05-22T01:09:42.463Z,74.12
2019-05-22T01:12:16.098Z,75.10
2019-05-22T01:14:44.930Z,74.00
2019-05-22T01:17:11.954Z,73.49
2019-05-22T01:19:38.932Z,73.23
2019-05-22T01:22:08.434Z,73.51
2019-05-22T01:24:37.641Z,73.61
2019-05-22T01:27:04.347Z,74.21
2019-05-22T01:29:35.053Z,74.77
2019-05-22T01:32:05.608Z,74.36
2019-05-22T01:34:34.737Z,74.34
2019-05-22T01:37:04.067Z,74.47
2019-05-22T01:39:38.326Z,73.77
2019-05-22T01:42:11.282Z,73.64
2019-05-22T01:44:40.313Z,73.33
2019-05-22T01:47:15.994Z,73.96
2019-05-22T01:49:49.475Z,74.15
2019-05-22T01:52:17.237Z,74.89
2019-05-22T01:54:45.593Z,74.45
2019-05-22T01:57:15.002Z,74.17
2019-05-22T01:59:42.500Z,73.79
2019-05-22T02:02:13.241Z,73.98
2019-05-22T02:04:41.845Z,74.23
2019-05-22T02:07:13.354Z,74.32
2019-05-22T02:09:43.679Z,74.50
2019-05-22T02:12:17.983Z,74.65
2019-05-22T02:14:50.487Z,74.12
2019-05-22T02:17:23.363Z,73.89
2019-05-22T02:19:51.636Z,74.79
2019-05-22T02:22:18.461Z,74.35
2019-05-22T02:24:49.427Z,75.05
2019-05-22T02:27:16.990Z,75.21
2019-05-22T02:29:46.437Z,75.43
2019-05-22T02:32:13.821Z,74.96
2019-05-22T02:34:40.705Z,74.52
2019-05-22T02:37:10.362Z,75.01
2019-05-22T02:39:37.886Z,76.07
2019-05-22T02:42:12.309Z,76.38
2019-05-22T02:44:41.953Z,76.84
2019-05-22T02:47:19.069Z,76.19
2019-05-22T02:49:39.494Z,75.66
2019-05-22T02:52:08.204Z,76.06
2019-05-22T02:54:36.729Z,76.46
2019-05-22T02:57:04.716Z,76.30
2019-05-22T02:59:32.184Z,75.13
2019-05-22T03:02:00.745Z,75.32
2019-05-22T03:04:33.922Z,75.26
2019-05-22T03:07:01.940Z,74.98
2019-05-22T03:09:30.590Z,75.63
2019-05-22T03:12:01.325Z,75.03
2019-05-22T03:14:30.195Z,76.02
2019-05-22T03:17:03.703Z,75.77
2019-05-22T03:19:35.966Z,75.88
2019-05-22T03:22:10.232Z,75.85
2019-05-22T03:24:38.037Z,75.26
2019-05-22T03:27:05.534Z,75.09
2019-05-22T03:29:38.358Z,75.33
2019-05-22T03:32:07.023Z,74.46
2019-05-22T03:34:35.258Z,74.87
2019-05-22T03:37:02.721Z,74.43
2019-05-22T03:39:29.449Z,73.97
2019-05-22T03:41:57.019Z,74.91
2019-05-22T03:44:25.865Z,76.46
2019-05-22T03:46:53.430Z,74.62
2019-05-22T03:49:31.033Z,75.09
2019-05-22T03:51:55.722Z,75.69
2019-05-22T03:54:23.613Z,75.54
2019-05-22T03:56:52.280Z,74.30
2019-05-22T03:59:20.826Z,74.47
2019-05-22T04:01:48.477Z,74.39
2019-05-22T04:04:21.435Z,74.61
2019-05-22T04:06:51.733Z,74.24
2019-05-22T04:09:19.874Z,74.32
2019-05-22T04:11:46.823Z,73.52
2019-05-22T04:14:15.441Z,73.98
2019-05-22T04:16:44.165Z,73.77
2019-05-22T04:19:15.164Z,73.01
2019-05-22T04:21:44.596Z,74.48
2019-05-22T04:24:12.143Z,73.89
2019-05-22T04:26:40.900Z,72.98
2019-05-22T04:29:08.539Z,73.69
2019-05-22T04:31:41.607Z,74.00
2019-05-22T04:34:10.138Z,74.24
2019-05-22T04:36:39.551Z,74.62
2019-05-22T04:39:12.750Z,73.48
2019-05-22T04:41:40.578Z,72.78
2019-05-22T04:44:07.252Z,72.59
2019-05-22T04:46:34.184Z,71.86
2019-05-22T04:49:01.295Z,73.01
2019-05-22T04:51:29.489Z,72.92
2019-05-22T04:53:56.476Z,72.42
2019-05-22T04:56:26.096Z,72.65
2019-05-22T04:58:54.341Z,72.44
2019-05-22T05:01:22.490Z,72.39
2019-05-22T05:03:49.936Z,71.49
2019-05-22T05:06:18.781Z,72.14
2019-05-22T05:08:45.574Z,71.30
2019-05-22T05:11:12.641Z,70.83
2019-05-22T05:13:39.441Z,70.77
2019-05-22T05:16:07.166Z,70.77
2019-05-22T05:18:34.815Z,69.55
2019-05-22T05:21:01.632Z,69.26
2019-05-22T05:23:30.033Z,70.14
2019-05-22T05:25:58.100Z,69.86
2019-05-22T05:28:25.819Z,70.20
2019-05-22T05:30:55.445Z,71.15
2019-05-22T05:33:24.830Z,70.18
2019-05-22T05:35:51.639Z,69.26
2019-05-22T05:38:24.024Z,69.87
2019-05-22T05:40:51.354Z,69.08
2019-05-22T05:43:19.051Z,69.01
2019-05-22T05:45:49.126Z,68.94
2019-05-22T05:48:20.994Z,68.48
2019-05-22T05:50:53.376Z,68.10
2019-05-22T05:53:22.153Z,67.80
2019-05-22T05:55:54.456Z,67.26
2019-05-22T05:58:27.183Z,67.30
2019-05-22T06:00:57.997Z,67.35
2019-05-22T06:03:28.531Z,67.75
2019-05-22T06:05:55.383Z,66.89
2019-05-22T06:08:22.740Z,67.53
2019-05-22T06:10:54.032Z,65.84
2019-05-22T06:13:20.792Z,66.20
2019-05-22T06:15:49.363Z,66.00
2019-05-22T06:18:23.124Z,66.53
2019-05-22T06:21:03.208Z,67.82
2019-05-22T06:23:20.906Z,66.56
2019-05-22T06:25:48.540Z,66.16
2019-05-22T06:28:15.494Z,65.81
2019-05-22T06:30:45.836Z,65.76
2019-05-22T06:33:18.821Z,67.32
2019-05-22T06:35:47.439Z,67.33
2019-05-22T06:38:20.103Z,68.90
2019-05-22T06:40:47.183Z,67.64
2019-05-22T06:43:17.707Z,68.84
2019-05-22T06:45:44.536Z,66.08
2019-05-22T06:48:11.631Z,67.96
2019-05-22T06:50:38.250Z,67.18
2019-05-22T06:53:09.986Z,68.55
2019-05-22T06:55:35.287Z,67.02
2019-05-22T06:58:03.185Z,67.43
2019-05-22T07:00:30.096Z,67.64
2019-05-22T07:02:56.841Z,67.71
2019-05-22T07:05:25.351Z,66.89
2019-05-22T07:07:52.917Z,67.29
2019-05-22T07:10:21.174Z,67.02
2019-05-22T07:12:50.890Z,68.07
2019-05-22T07:15:20.756Z,68.88
2019-05-22T07:17:51.201Z,66.76
2019-05-22T07:20:20.376Z,66.89
2019-05-22T07:22:48.575Z,67.64
2019-05-22T07:25:17.711Z,66.55
2019-05-22T07:27:44.500Z,67.48
2019-05-22T07:30:14.628Z,65.34
2019-05-22T07:32:41.779Z,65.94
2019-05-22T07:35:08.975Z,65.56
2019-05-22T07:37:40.892Z,66.97
2019-05-22T07:40:10.381Z,66.97
2019-05-22T07:42:37.391Z,66.63
2019-05-22T07:45:06.183Z,66.80
2019-05-22T07:47:34.918Z,67.07
2019-05-22T07:50:05.493Z,66.17
2019-05-22T07:52:34.063Z,66.03
2019-05-22T07:55:01.629Z,64.50
2019-05-22T07:57:29.490Z,63.21
2019-05-22T07:59:56.413Z,63.05
2019-05-22T08:02:28.468Z,64.44
2019-05-22T08:04:55.901Z,63.09
2019-05-22T08:07:24.960Z,62.99
2019-05-22T08:09:52.097Z,63.02
2019-05-22T08:12:19.950Z,63.47
2019-05-22T08:14:47.851Z,63.16
2019-05-22T08:17:16.464Z,63.92
2019-05-22T08:19:43.964Z,64.02
2019-05-22T08:22:13.568Z,66.15
2019-05-22T08:24:41.816Z,65.37
2019-05-22T08:27:10.940Z,66.26
2019-05-22T08:29:38.549Z,65.81
2019-05-22T08:32:06.785Z,66.11
2019-05-22T08:34:33.468Z,66.84
2019-05-22T08:37:04.229Z,66.85
2019-05-22T08:39:30.981Z,66.93
2019-05-22T08:41:58.739Z,66.30
2019-05-22T08:44:26.935Z,66.03
2019-05-22T08:46:54.788Z,66.74
2019-05-22T08:49:24.438Z,66.54
2019-05-22T08:51:52.732Z,67.08
2019-05-22T08:54:21.209Z,67.57
2019-05-22T08:56:48.898Z,68.44
2019-05-22T08:59:19.616Z,68.96
2019-05-22T09:01:45.777Z,70.39
2019-05-22T09:04:13.042Z,70.92
2019-05-22T09:06:40.351Z,71.72
2019-05-22T09:09:07.150Z,73.19
2019-05-22T09:11:34.226Z,73.23
2019-05-22T09:14:01.160Z,73.12
2019-05-22T09:16:28.509Z,74.67
2019-05-22T09:19:51.339Z,73.29
2019-05-22T09:22:18.808Z,73.79
2019-05-22T09:24:47.399Z,73.86
2019-05-22T09:27:15.217Z,71.39
2019-05-22T09:29:41.968Z,71.73
2019-05-22T09:32:09.145Z,73.19
2019-05-22T09:34:36.229Z,73.06
2019-05-22T09:37:04.330Z,73.45
2019-05-22T09:39:31.620Z,73.45
2019-05-22T09:41:58.631Z,73.78
2019-05-22T09:44:26.032Z,73.36
2019-05-22T09:46:53.425Z,73.93
2019-05-22T09:49:23.914Z,73.33
2019-05-22T09:51:49.234Z,72.17
2019-05-22T09:54:16.022Z,71.09
2019-05-22T09:56:44.621Z,70.72
2019-05-22T09:59:12.769Z,70.67
2019-05-22T10:01:39.695Z,70.32
2019-05-22T10:04:07.608Z,71.39
2019-05-22T10:06:34.686Z,70.90
2019-05-22T10:09:01.732Z,70.38
2019-05-22T10:11:34.015Z,70.27
2019-05-22T10:14:02.860Z,69.22
2019-05-22T10:16:30.055Z,69.01
2019-05-22T10:18:57.043Z,70.45
2019-05-22T10:21:25.148Z,70.80
2019-05-22T10:23:52.556Z,70.68
2019-05-22T10:26:19.221Z,69.94
2019-05-22T10:28:46.456Z,71.79
2019-05-22T10:31:16.939Z,73.45
2019-05-22T10:33:43.016Z,72.90
2019-05-22T10:36:10.172Z,74.96
2019-05-22T10:38:36.882Z,76.17
2019-05-22T10:41:04.881Z,75.37
2019-05-22T10:43:34.212Z,76.18
2019-05-22T10:46:01.728Z,76.16
2019-05-22T10:48:28.791Z,75.69
2019-05-22T10:50:55.867Z,75.36
2019-05-22T10:54:19.172Z,73.58
2019-05-22T10:56:46.234Z,74.40
2019-05-22T10:59:13.310Z,72.25
2019-05-22T11:01:40.255Z,73.75
2019-05-22T11:04:07.492Z,71.02
2019-05-22T11:06:34.325Z,70.00
2019-05-22T11:09:01.571Z,68.20
2019-05-22T11:11:29.752Z,67.97
2019-05-22T11:14:01.676Z,67.33
2019-05-22T11:16:26.474Z,68.60
2019-05-22T11:18:53.410Z,66.30
2019-05-22T11:21:20.271Z,66.57
2019-05-22T11:23:52.453Z,65.46
2019-05-22T11:26:15.997Z,66.58
2019-05-22T11:28:42.886Z,64.67
2019-05-22T11:31:11.276Z,64.80
2019-05-22T11:33:38.693Z,65.49
2019-05-22T11:36:06.032Z,65.68
2019-05-22T11:38:32.738Z,65.52
2019-05-22T11:41:00.442Z,65.51
2019-05-22T11:43:28.049Z,66.50
2019-05-22T11:45:55.588Z,63.86
2019-05-22T11:48:24.499Z,66.18
2019-05-22T11:50:53.406Z,64.85
2019-05-22T11:53:20.336Z,64.65
2019-05-22T11:55:47.405Z,65.73
2019-05-22T11:58:14.905Z,64.94
2019-05-22T12:00:41.778Z,65.24
2019-05-22T12:03:08.442Z,64.13
2019-05-22T12:05:36.078Z,64.52
2019-05-22T12:08:05.095Z,65.19
2019-05-22T12:10:31.962Z,63.76
2019-05-22T12:12:58.963Z,64.83
2019-05-22T12:15:27.759Z,64.51
2019-05-22T12:17:55.196Z,64.03
2019-05-22T12:20:24.065Z,65.56
2019-05-22T12:22:51.692Z,63.86
2019-05-22T12:25:19.065Z,65.37
2019-05-22T12:27:47.582Z,62.34
2019-05-22T12:30:16.785Z,63.81
2019-05-22T12:32:45.421Z,62.00
2019-05-22T12:35:15.083Z,60.95
2019-05-22T12:37:43.619Z,60.47
2019-05-22T12:40:16.570Z,61.45
2019-05-22T12:42:44.826Z,61.74
2019-05-22T12:45:14.468Z,60.85
2019-05-22T12:47:42.739Z,61.10
2019-05-22T12:50:14.841Z,61.12
2019-05-22T12:52:46.865Z,60.95
2019-05-22T12:55:17.035Z,60.41
2019-05-22T12:57:44.668Z,64.07
2019-05-22T13:00:11.922Z,68.94
2019-05-22T13:02:42.444Z,69.15
2019-05-22T13:05:08.727Z,71.20
2019-05-22T13:07:36.740Z,69.50
2019-05-22T13:10:06.044Z,69.67
2019-05-22T13:12:33.772Z,69.86
2019-05-22T13:15:09.914Z,67.06
2019-05-22T13:17:32.677Z,70.12
2019-05-22T13:19:59.510Z,66.22
2019-05-22T13:22:28.788Z,64.97
2019-05-22T13:24:56.184Z,62.14
2019-05-22T13:27:23.754Z,62.63
2019-05-22T13:29:51.760Z,61.33
2019-05-22T13:32:21.286Z,62.62
2019-05-22T13:34:51.048Z,60.32
2019-05-22T13:37:18.244Z,59.92
2019-05-22T13:39:44.979Z,62.96
2019-05-22T13:42:13.584Z,58.92
2019-05-22T13:44:42.037Z,60.17
2019-05-22T13:47:09.057Z,58.28
2019-05-22T13:49:38.662Z,60.69
2019-05-22T13:52:06.344Z,59.47
2019-05-22T13:54:33.918Z,60.00
2019-05-22T13:57:01.555Z,61.61
2019-05-22T13:59:29.339Z,60.71
2019-05-22T14:01:56.918Z,59.95
2019-05-22T14:04:24.165Z,61.07
2019-05-22T14:06:51.211Z,61.15
2019-05-22T14:09:21.437Z,61.44
2019-05-22T14:11:49.254Z,60.77
2019-05-22T14:14:17.094Z,61.76
2019-05-22T14:16:49.190Z,62.55
2019-05-22T14:19:15.223Z,63.60
2019-05-22T14:21:50.109Z,62.98
2019-05-22T14:24:10.891Z,64.23
2019-05-22T14:26:37.676Z,65.40
2019-05-22T14:29:04.708Z,68.33
2019-05-22T14:31:31.924Z,67.89
2019-05-22T14:33:59.300Z,70.16
2019-05-22T14:36:26.206Z,69.30
2019-05-22T14:38:54.697Z,71.77
2019-05-22T14:41:21.848Z,71.06
2019-05-22T14:43:48.943Z,72.65
2019-05-22T14:46:15.887Z,73.11
2019-05-22T14:48:42.811Z,72.87
2019-05-22T14:51:10.160Z,73.53
2019-05-22T14:53:39.693Z,71.53
2019-05-22T14:56:10.711Z,70.60
2019-05-22T14:58:38.067Z,73.24
2019-05-22T15:01:05.489Z,72.25
2019-05-22T15:03:33.116Z,72.20
2019-05-22T15:06:00.170Z,69.98
2019-05-22T15:08:27.182Z,68.63
2019-05-22T15:10:55.211Z,67.01
2019-05-22T15:13:22.595Z,72.54
2019-05-22T15:15:49.762Z,68.88
2019-05-22T15:18:16.658Z,67.12
2019-05-22T15:20:45.757Z,67.07
2019-05-22T15:23:12.898Z,64.09
2019-05-22T15:25:40.029Z,67.76
2019-05-22T15:28:07.676Z,65.66
2019-05-22T15:30:35.082Z,63.29
2019-05-22T15:33:01.965Z,59.86
2019-05-22T15:35:29.132Z,63.67
2019-05-22T15:37:58.305Z,70.98
2019-05-22T15:40:25.563Z,69.88
2019-05-22T15:42:53.079Z,73.01
2019-05-22T15:45:25.138Z,74.99
2019-05-22T15:47:57.262Z,74.85
2019-05-22T15:50:31.313Z,75.61
2019-05-22T15:53:06.309Z,75.88
2019-05-22T15:55:36.304Z,77.31
2019-05-22T15:58:04.856Z,77.12
2019-05-22T16:00:35.760Z,77.70
2019-05-22T16:03:09.319Z,79.04
2019-05-22T16:05:39.815Z,77.26
2019-05-22T16:08:08.113Z,77.44
2019-05-22T16:10:37.764Z,77.75
2019-05-22T16:13:05.133Z,76.79
2019-05-22T16:15:35.397Z,76.98
2019-05-22T16:18:11.498Z,76.13
2019-05-22T16:20:36.873Z,76.41
2019-05-22T16:23:04.552Z,76.94
2019-05-22T16:25:31.675Z,77.96
2019-05-22T16:27:58.847Z,78.25
2019-05-22T16:30:27.484Z,78.03
2019-05-22T16:32:55.655Z,77.24
2019-05-22T16:35:24.527Z,77.58
2019-05-22T16:37:53.777Z,78.35
2019-05-22T16:40:21.546Z,78.61
2019-05-22T16:42:48.907Z,78.32
2019-05-22T16:45:16.568Z,78.43
2019-05-22T16:47:44.123Z,79.04
2019-05-22T16:50:12.020Z,78.40
2019-05-22T16:52:42.512Z,77.40
2019-05-22T16:55:12.967Z,78.38
2019-05-22T16:57:40.852Z,78.04
2019-05-22T17:00:11.309Z,76.97
2019-05-22T17:02:40.020Z,77.96
2019-05-22T17:05:10.839Z,78.09
2019-05-22T17:07:39.445Z,77.51
2019-05-22T17:10:11.737Z,79.05
2019-05-22T17:12:39.943Z,78.66
2019-05-22T17:15:12.621Z,79.74
2019-05-22T17:17:39.403Z,77.16
2019-05-22T17:20:09.468Z,77.53
2019-05-22T17:22:37.529Z,78.14
2019-05-22T17:25:06.606Z,76.24
2019-05-22T17:27:34.918Z,76.30
2019-05-22T17:30:04.840Z,79.06
2019-05-22T17:32:32.341Z,78.06
2019-05-22T17:34:59.692Z,78.38
2019-05-22T17:37:28.328Z,80.15
2019-05-22T17:39:55.451Z,78.92
2019-05-22T17:42:25.832Z,78.77
2019-05-22T17:44:53.347Z,79.22
2019-05-22T17:47:24.243Z,80.81
2019-05-22T17:49:52.620Z,79.82
2019-05-22T17:52:21.735Z,79.98
2019-05-22T17:54:49.563Z,79.33
2019-05-22T17:57:17.847Z,78.60
2019-05-22T17:59:44.854Z,78.60
2019-05-22T18:02:13.887Z,78.90
2019-05-22T18:04:41.448Z,79.44
2019-05-22T18:07:08.833Z,80.08
2019-05-22T18:09:36.577Z,80.85
2019-05-22T18:12:05.530Z,79.98
2019-05-22T18:14:33.950Z,78.67
2019-05-22T18:17:01.056Z,80.35
2019-05-22T18:19:28.819Z,79.40
2019-05-22T18:21:56.446Z,78.57
2019-05-22T18:24:23.493Z,79.56
2019-05-22T18:26:50.186Z,79.38
2019-05-22T18:29:17.034Z,79.94
2019-05-22T18:31:44.002Z,78.75
2019-05-22T18:34:10.846Z,78.86
2019-05-22T18:36:37.731Z,78.74
2019-05-22T18:39:06.049Z,79.65
2019-05-22T18:41:32.925Z,80.49
2019-05-22T18:43:59.821Z,81.01
2019-05-22T18:46:27.142Z,80.52
2019-05-22T18:48:54.102Z,79.83
2019-05-22T18:51:22.115Z,80.98
2019-05-22T18:53:49.960Z,81.50
2019-05-22T18:56:18.103Z,81.02
2019-05-22T18:58:45.731Z,80.78
2019-05-22T19:01:16.223Z,80.32
2019-05-22T19:03:41.600Z,79.73
2019-05-22T19:06:08.877Z,79.71
2019-05-22T19:08:35.576Z,80.52
2019-05-22T19:11:03.607Z,81.36
2019-05-22T19:13:30.379Z,81.29
2019-05-22T19:15:57.501Z,80.86
2019-05-22T19:18:24.508Z,80.99
2019-05-22T19:20:51.396Z,81.77
2019-05-22T19:23:18.211Z,81.09
2019-05-22T19:25:45.063Z,79.50
2019-05-22T19:28:12.430Z,80.18
2019-05-22T19:30:39.612Z,79.46
2019-05-22T19:33:06.780Z,79.79
2019-05-22T19:35:33.683Z,79.27
2019-05-22T19:38:00.804Z,79.84
2019-05-22T19:40:28.698Z,79.29
2019-05-22T19:42:56.311Z,79.59
2019-05-22T19:45:23.489Z,78.58
2019-05-22T19:47:56.291Z,78.66
2019-05-22T19:50:24.769Z,78.46
2019-05-22T19:52:53.977Z,78.52
2019-05-22T19:55:29.034Z,78.16
2019-05-22T19:58:05.818Z,79.31
2019-05-22T20:00:38.643Z,78.51
2019-05-22T20:03:06.678Z,78.23
2019-05-22T20:05:34.664Z,78.69
2019-05-22T20:08:02.894Z,77.91
2019-05-22T20:10:29.719Z,78.59
2019-05-22T20:12:56.898Z,78.52
2019-05-22T20:15:25.614Z,77.95
2019-05-22T20:17:54.442Z,77.90
2019-05-22T20:20:22.424Z,78.50
2019-05-22T20:22:49.197Z,77.54
2019-05-22T20:25:18.789Z,77.50
2019-05-22T20:27:45.848Z,78.38
2019-05-22T20:30:15.077Z,78.05
2019-05-22T20:32:43.021Z,78.05
2019-05-22T20:35:11.014Z,77.86
2019-05-22T20:37:38.631Z,78.32
2019-05-22T20:40:07.572Z,79.09
2019-05-22T20:42:35.229Z,79.89
2019-05-22T20:45:04.186Z,80.16
2019-05-22T20:47:31.323Z,80.70
2019-05-22T20:50:01.138Z,79.38
2019-05-22T20:52:30.351Z,79.32
2019-05-22T20:54:57.159Z,78.66
2019-05-22T20:57:26.109Z,78.96
2019-05-22T20:59:54.199Z,79.60
2019-05-22T21:02:23.710Z,79.03
2019-05-22T21:04:53.213Z,79.36
2019-05-22T21:07:25.973Z,79.49
2019-05-22T21:09:54.836Z,81.09
2019-05-22T21:12:22.755Z,80.35
2019-05-22T21:14:50.025Z,79.76
2019-05-22T21:17:17.438Z,79.56
2019-05-22T21:19:44.462Z,79.83
2019-05-22T21:22:13.298Z,79.96
2019-05-22T21:24:40.547Z,79.97
2019-05-22T21:27:08.709Z,80.28
2019-05-22T21:29:36.891Z,80.07
2019-05-22T21:32:05.398Z,80.23
2019-05-22T21:34:32.422Z,79.80
2019-05-22T21:36:59.117Z,80.26
2019-05-22T21:39:27.052Z,79.87
2019-05-22T21:41:53.676Z,79.30
2019-05-22T21:44:20.712Z,80.11
2019-05-22T21:46:47.475Z,80.35
2019-05-22T21:49:15.243Z,80.98
2019-05-22T21:51:41.811Z,79.82
2019-05-22T21:54:08.877Z,80.80
2019-05-22T21:56:37.058Z,82.01
2019-05-22T21:59:05.258Z,80.83
2019-05-22T22:01:34.926Z,80.60
2019-05-22T22:04:03.717Z,81.40
2019-05-22T22:06:33.320Z,81.16
2019-05-22T22:09:00.451Z,81.75
2019-05-22T22:11:29.496Z,80.08
2019-05-22T22:13:59.035Z,80.02
2019-05-22T22:16:27.726Z,80.14
2019-05-22T22:18:55.809Z,79.13
2019-05-22T22:21:23.787Z,79.60
2019-05-22T22:23:51.731Z,79.31
2019-05-22T22:26:25.565Z,80.16
2019-05-22T22:28:47.009Z,79.67
2019-05-22T22:31:15.738Z,80.10
2019-05-22T22:33:48.224Z,80.46
2019-05-22T22:36:17.683Z,80.43
2019-05-22T22:38:45.351Z,80.42
2019-05-22T22:41:13.549Z,82.35
2019-05-22T22:43:42.504Z,82.41
2019-05-22T22:46:16.793Z,81.70
2019-05-22T22:48:44.174Z,82.15
2019-05-22T22:51:12.707Z,81.46
2019-05-22T22:53:41.441Z,81.00
2019-05-22T22:56:09.186Z,81.24
2019-05-22T22:58:36.642Z,81.05
2019-05-22T23:01:10.018Z,80.88
2019-05-22T23:03:39.208Z,81.04
2019-05-22T23:06:13.269Z,80.99
2019-05-22T23:08:42.243Z,81.40
2019-05-22T23:11:09.929Z,82.51
2019-05-22T23:13:37.861Z,82.76
2019-05-22T23:16:05.993Z,81.65
2019-05-22T23:18:36.596Z,81.11
2019-05-22T23:21:04.245Z,81.64
2019-05-22T23:23:31.802Z,81.43
2019-05-22T23:25:58.406Z,81.51
2019-05-22T23:28:34.088Z,81.62
2019-05-22T23:30:53.607Z,80.77
2019-05-22T23:33:21.898Z,80.04
2019-05-22T23:35:49.479Z,79.72
2019-05-22T23:38:16.984Z,79.03
2019-05-22T23:40:44.789Z,80.23
2019-05-22T23:43:13.648Z,79.93
2019-05-22T23:45:40.865Z,79.06
2019-05-22T23:48:11.296Z,78.72
2019-05-22T23:50:38.489Z,79.29
2019-05-22T23:53:05.441Z,78.79
2019-05-22T23:55:34.819Z,78.71
2019-05-22T23:58:02.136Z,79.62
